Time;durP1;ratioP1;P1;durP2;ratioP2;P2;SDS_P1;SDS_P2;PMS_P1;PMS_P2;Temp;Humidity;BMP_temperature;BMP_pressure;BME280_temperature;BME280_humidity;BME280_pressure;Samples;Min_cycle;Max_cycle;Signal;HPM_P1;HPM_P2
2022/11/05 00:10:36;;;;;;;9.37;3.30;;;7.20;99.90;;;;;;5030920;28;20210;-49
2022/11/05 00:18:34;;;;;;;7.90;2.93;;;7.20;99.90;;;;;;5027131;28;20702;-50
2022/11/05 00:21:01;;;;;;;8.77;3.07;;;7.30;99.90;;;;;;5041945;28;20191;-45
2022/11/05 00:26:15;;;;;;;6.33;2.70;;;7.30;99.90;;;;;;5033576;28;20253;-48
2022/11/05 00:28:43;;;;;;;8.10;2.67;;;7.40;99.90;;;;;;5035946;28;20210;-49
2022/11/05 00:31:12;;;;;;;8.17;2.83;;;7.40;99.90;;;;;;5041687;28;20214;-46
2022/11/05 00:33:41;;;;;;;4.87;2.60;;;7.50;99.90;;;;;;5022821;28;20223;-51
2022/11/05 00:36:11;;;;;;;9.13;3.43;;;7.50;99.90;;;;;;5041214;28;20225;-46
2022/11/05 00:38:37;;;;;;;8.73;2.97;;;7.50;99.90;;;;;;5038211;28;20204;-50
2022/11/05 00:41:04;;;;;;;14.23;3.20;;;7.60;99.90;;;;;;5034683;28;20943;-49
2022/11/05 00:46:17;;;;;;;9.33;2.77;;;7.70;99.90;;;;;;5037628;28;20237;-46
2022/11/05 00:51:29;;;;;;;7.63;3.87;;;7.70;99.90;;;;;;5033992;28;21216;-48
2022/11/05 00:53:56;;;;;;;6.40;2.60;;;7.80;99.90;;;;;;5031334;28;20215;-47
2022/11/05 00:56:23;;;;;;;4.30;2.67;;;7.80;99.90;;;;;;5027386;28;20562;-46
2022/11/05 00:58:51;;;;;;;5.97;2.70;;;7.80;99.90;;;;;;5033834;28;20192;-46
2022/11/05 01:01:18;;;;;;;9.37;3.07;;;7.80;99.90;;;;;;5030071;28;20195;-49
2022/11/05 01:03:45;;;;;;;9.40;2.57;;;7.80;99.90;;;;;;5015281;28;20242;-49
2022/11/05 01:06:13;;;;;;;6.23;2.60;;;7.80;99.90;;;;;;5034178;28;20206;-46
2022/11/05 01:08:43;;;;;;;11.03;2.70;;;7.70;99.90;;;;;;5037719;28;20191;-46
2022/11/05 01:11:12;;;;;;;5.37;2.47;;;7.70;99.90;;;;;;5022650;28;20246;-48
2022/11/05 01:13:40;;;;;;;4.57;2.67;;;7.70;99.90;;;;;;5027792;28;20219;-46
2022/11/05 01:16:10;;;;;;;8.20;2.17;;;7.70;99.90;;;;;;5041407;28;20196;-51
2022/11/05 01:18:38;;;;;;;4.83;2.20;;;7.60;99.90;;;;;;5040035;28;20198;-46
2022/11/05 01:21:14;;;;;;;5.07;2.10;;;7.60;99.90;;;;;;5023424;28;20250;-49
2022/11/05 01:23:41;;;;;;;5.70;2.10;;;7.50;99.90;;;;;;5041204;28;20857;-46
2022/11/05 01:26:08;;;;;;;9.70;2.50;;;7.40;99.90;;;;;;5039498;28;20218;-50
2022/11/05 01:28:35;;;;;;;9.37;2.27;;;7.30;99.90;;;;;;5036945;28;20233;-48
2022/11/05 01:31:03;;;;;;;6.87;2.87;;;7.30;99.90;;;;;;5042988;28;20730;-46
2022/11/05 01:33:31;;;;;;;9.03;2.53;;;7.20;99.90;;;;;;5038764;28;20215;-46
2022/11/05 01:35:58;;;;;;;4.87;2.27;;;7.20;99.90;;;;;;5028580;28;20216;-46
2022/11/05 01:38:25;;;;;;;6.60;2.33;;;7.10;99.90;;;;;;5036890;28;20199;-46
2022/11/05 01:40:52;;;;;;;7.80;1.87;;;7.00;99.90;;;;;;5039053;28;20210;-48
2022/11/05 01:43:22;;;;;;;4.53;2.23;;;7.00;99.90;;;;;;5031106;28;20764;-52
2022/11/05 01:45:52;;;;;;;2.57;1.97;;;6.90;99.90;;;;;;5043030;28;20210;-46
2022/11/05 01:48:24;;;;;;;8.43;2.60;;;6.80;99.90;;;;;;5039317;28;20203;-48
2022/11/05 01:50:56;;;;;;;3.97;2.17;;;6.70;99.90;;;;;;5029050;28;20214;-46
2022/11/05 01:53:29;;;;;;;7.60;1.97;;;6.70;99.90;;;;;;5036942;28;21054;-47
2022/11/05 01:56:02;;;;;;;3.27;2.23;;;6.70;99.90;;;;;;5038437;28;20391;-48
2022/11/05 01:58:34;;;;;;;8.53;2.40;;;6.60;99.90;;;;;;5031541;28;20892;-47
2022/11/05 02:01:01;;;;;;;7.37;2.27;;;6.60;99.90;;;;;;5041356;28;20203;-49
2022/11/05 02:03:29;;;;;;;9.60;2.37;;;6.70;99.90;;;;;;5037995;28;20239;-47
2022/11/05 02:06:00;;;;;;;8.93;2.33;;;6.80;99.90;;;;;;5038817;28;20629;-46
2022/11/05 02:08:39;;;;;;;4.13;2.33;;;6.80;99.90;;;;;;5025786;28;20207;-48
2022/11/05 02:11:06;;;;;;;5.47;2.47;;;6.70;99.90;;;;;;5041824;28;20203;-48
2022/11/05 02:13:32;;;;;;;6.77;2.57;;;6.70;99.90;;;;;;5031729;28;21049;-46
2022/11/05 02:16:08;;;;;;;6.93;2.47;;;6.70;99.90;;;;;;5042665;28;20199;-46
2022/11/05 02:18:47;;;;;;;5.20;2.20;;;6.80;99.90;;;;;;5040395;28;20198;-49
2022/11/05 02:21:40;;;;;;;4.67;1.97;;;6.70;99.90;;;;;;5040105;28;20224;-48
2022/11/05 02:24:34;;;;;;;6.40;2.50;;;6.70;99.90;;;;;;5026225;28;20234;-49
2022/11/05 02:27:20;;;;;;;4.13;2.13;;;6.70;99.90;;;;;;5039839;28;20265;-50
2022/11/05 02:30:09;;;;;;;7.13;2.70;;;6.60;99.90;;;;;;5031959;28;20195;-50
2022/11/05 02:32:50;;;;;;;8.47;2.43;;;6.60;99.90;;;;;;5044144;28;20218;-47
2022/11/05 02:35:28;;;;;;;6.23;2.50;;;6.60;99.90;;;;;;5036835;28;20679;-47
2022/11/05 02:38:06;;;;;;;7.03;1.83;;;6.60;99.90;;;;;;5032490;28;20222;-45
2022/11/05 02:40:39;;;;;;;2.97;2.00;;;6.60;99.90;;;;;;5039146;28;20183;-48
2022/11/05 02:43:14;;;;;;;3.93;2.47;;;6.50;99.90;;;;;;5044184;28;20207;-51
2022/11/05 02:45:48;;;;;;;7.90;2.07;;;6.50;99.90;;;;;;5037532;28;20695;-48
2022/11/05 02:48:23;;;;;;;6.77;2.20;;;6.40;99.90;;;;;;5042786;28;20229;-48
2022/11/05 02:50:55;;;;;;;4.70;2.20;;;6.30;99.90;;;;;;5040380;28;20214;-46
2022/11/05 02:53:33;;;;;;;9.33;2.63;;;6.30;99.90;;;;;;5027878;28;20261;-46
2022/11/05 02:56:03;;;;;;;5.53;2.10;;;6.20;99.90;;;;;;5043538;28;20671;-49
2022/11/05 02:58:30;;;;;;;5.07;2.30;;;6.20;99.90;;;;;;5043135;28;20292;-45
2022/11/05 03:00:59;;;;;;;6.53;2.53;;;6.10;99.90;;;;;;5037038;28;20729;-47
2022/11/05 03:03:31;;;;;;;7.03;2.23;;;6.10;99.90;;;;;;5037750;28;20230;-43
2022/11/05 03:06:27;;;;;;;4.80;2.00;;;6.00;99.90;;;;;;5042041;28;20290;-51
2022/11/05 03:09:09;;;;;;;6.47;2.00;;;6.00;99.90;;;;;;5027319;28;20214;-49
2022/11/05 03:11:41;;;;;;;5.83;1.90;;;6.00;99.90;;;;;;5042255;28;20218;-46
2022/11/05 03:14:17;;;;;;;7.53;2.20;;;6.00;99.90;;;;;;5041100;28;20215;-50
2022/11/05 03:16:49;;;;;;;7.70;2.30;;;6.00;99.90;;;;;;5037717;28;20550;-46
2022/11/05 03:19:28;;;;;;;7.93;2.93;;;6.00;99.90;;;;;;5037135;28;20188;-49
2022/11/05 03:22:00;;;;;;;6.87;3.37;;;5.90;99.90;;;;;;5044449;28;20622;-48
2022/11/05 03:24:30;;;;;;;4.63;2.00;;;5.90;99.90;;;;;;5028486;28;21074;-47
2022/11/05 03:27:02;;;;;;;3.87;2.10;;;5.90;99.90;;;;;;5043431;28;20206;-51
2022/11/05 03:29:34;;;;;;;4.33;2.37;;;6.00;99.90;;;;;;5044302;28;20329;-46
2022/11/05 03:32:03;;;;;;;6.03;2.30;;;5.90;99.90;;;;;;5035173;28;20223;-52
2022/11/05 03:34:36;;;;;;;6.70;2.40;;;5.90;99.90;;;;;;5031286;28;20227;-44
2022/11/05 03:37:05;;;;;;;6.83;2.50;;;6.00;99.90;;;;;;5039299;28;20200;-51
2022/11/05 03:39:36;;;;;;;4.30;2.23;;;6.00;99.90;;;;;;5044636;28;20206;-44
2022/11/05 03:42:08;;;;;;;2.87;1.80;;;6.00;99.90;;;;;;5024651;28;20218;-45
2022/11/05 03:44:42;;;;;;;7.37;2.67;;;6.10;99.90;;;;;;5044085;28;20226;-44
2022/11/05 03:47:13;;;;;;;9.20;2.13;;;6.10;99.90;;;;;;5033893;28;20205;-44
2022/11/05 03:49:50;;;;;;;6.13;1.83;;;6.10;99.90;;;;;;5029777;28;20571;-47
2022/11/05 03:52:21;;;;;;;5.37;2.67;;;6.10;99.90;;;;;;5039706;28;20377;-48
2022/11/05 03:54:48;;;;;;;6.93;2.10;;;6.10;99.90;;;;;;5038828;28;20217;-44
2022/11/05 03:57:20;;;;;;;6.03;2.30;;;6.20;99.90;;;;;;5026914;28;21937;-45
2022/11/05 03:59:49;;;;;;;5.47;2.00;;;6.20;99.90;;;;;;5040835;28;20230;-44
2022/11/05 04:02:19;;;;;;;5.13;2.50;;;6.20;99.90;;;;;;5044570;28;20199;-46
2022/11/05 04:04:47;;;;;;;4.60;2.03;;;6.20;99.90;;;;;;5026800;28;20223;-44
2022/11/05 04:15:29;;;;;;;3.63;2.17;;;6.00;99.90;;;;;;5042244;28;20253;-47
2022/11/05 04:17:57;;;;;;;6.03;2.80;;;6.00;99.90;;;;;;5034426;28;22101;-46
2022/11/05 04:25:55;;;;;;;8.83;2.70;;;5.90;99.90;;;;;;5042031;28;20222;-44
2022/11/05 04:30:17;;;;;;;4.03;2.20;;;5.90;99.90;;;;;;5029429;28;20214;-49
2022/11/05 04:31:09;;;;;;;8.00;2.57;;;6.00;99.90;;;;;;5043883;28;20306;-47
2022/11/05 04:33:36;;;;;;;5.50;2.70;;;6.00;99.90;;;;;;5032357;28;20219;-47
2022/11/05 04:36:04;;;;;;;8.67;3.17;;;6.00;99.90;;;;;;5036855;28;20203;-45
2022/11/05 04:38:31;;;;;;;10.53;2.40;;;6.00;99.90;;;;;;5042012;28;20210;-51
2022/11/05 04:41:12;;;;;;;11.73;2.73;;;6.00;99.90;;;;;;5042269;28;20187;-46
2022/11/05 04:43:39;;;;;;;6.70;2.40;;;6.00;99.90;;;;;;5018510;28;20285;-48
2022/11/05 04:46:07;;;;;;;7.97;2.23;;;6.10;99.90;;;;;;5043805;28;20214;-45
2022/11/05 04:48:34;;;;;;;9.87;2.80;;;6.10;99.90;;;;;;5040929;28;20562;-50
2022/11/05 04:51:01;;;;;;;6.83;2.47;;;6.10;99.90;;;;;;5030275;28;20209;-45
2022/11/05 04:53:29;;;;;;;9.13;2.50;;;6.10;99.90;;;;;;5040941;28;20219;-47
2022/11/05 04:56:09;;;;;;;7.83;3.50;;;6.10;99.90;;;;;;5035361;28;21017;-49
2022/11/05 04:58:38;;;;;;;6.80;3.00;;;6.10;99.90;;;;;;5026226;28;20210;-50
2022/11/05 05:01:06;;;;;;;10.27;2.30;;;6.10;99.90;;;;;;5043438;28;20203;-46
2022/11/05 05:03:33;;;;;;;8.13;2.53;;;6.10;99.90;;;;;;5038122;28;20254;-48
2022/11/05 05:06:00;;;;;;;8.30;2.53;;;6.10;99.90;;;;;;5032106;28;20195;-45
2022/11/05 05:08:26;;;;;;;3.43;2.10;;;6.10;99.90;;;;;;5037704;28;20253;-49
2022/11/05 05:10:54;;;;;;;4.83;2.70;;;6.10;99.90;;;;;;5041110;28;20195;-45
2022/11/05 05:13:21;;;;;;;6.03;2.50;;;6.10;99.90;;;;;;5028150;28;20802;-47
2022/11/05 05:15:48;;;;;;;4.80;2.40;;;6.10;99.90;;;;;;5039469;28;20192;-46
2022/11/05 05:18:15;;;;;;;8.90;2.90;;;6.10;99.90;;;;;;5037125;28;20211;-44
2022/11/05 05:23:27;;;;;;;12.03;3.10;;;6.20;99.90;;;;;;5033897;28;20227;-46
2022/11/05 05:25:58;;;;;;;10.47;2.87;;;6.10;99.90;;;;;;5040794;28;20963;-47
2022/11/05 05:28:26;;;;;;;6.20;2.83;;;6.10;99.90;;;;;;5039373;28;20210;-49
2022/11/05 05:30:58;;;;;;;8.13;2.73;;;6.10;99.90;;;;;;5032894;28;20199;-46
2022/11/05 05:33:25;;;;;;;8.80;2.70;;;6.10;99.90;;;;;;5040132;28;20219;-51
2022/11/05 05:35:52;;;;;;;4.23;2.80;;;6.10;99.90;;;;;;5033175;28;20349;-45
2022/11/05 05:38:18;;;;;;;5.97;2.60;;;6.10;99.90;;;;;;5038655;28;20202;-47
2022/11/05 05:40:45;;;;;;;9.97;2.43;;;6.00;99.90;;;;;;5039228;28;20203;-46
2022/11/05 05:43:14;;;;;;;10.93;3.03;;;6.10;99.90;;;;;;5042218;28;20215;-45
2022/11/05 05:45:41;;;;;;;12.60;3.70;;;6.10;99.90;;;;;;5025120;28;20617;-46
2022/11/05 05:48:08;;;;;;;15.73;3.87;;;6.10;99.90;;;;;;5042700;28;20199;-45
2022/11/05 05:50:35;;;;;;;12.83;4.30;;;6.10;99.90;;;;;;5040222;28;20199;-46
2022/11/05 05:53:07;;;;;;;9.73;2.60;;;6.00;99.90;;;;;;5035524;28;20223;-46
2022/11/05 05:55:34;;;;;;;5.43;2.77;;;6.00;99.90;;;;;;5035713;28;20215;-46
2022/11/05 05:58:01;;;;;;;9.43;3.47;;;6.00;99.90;;;;;;5042138;28;20317;-49
2022/11/05 06:00:29;;;;;;;11.10;3.73;;;6.00;99.90;;;;;;5035953;28;20203;-47
2022/11/05 06:02:56;;;;;;;8.03;3.67;;;6.00;99.90;;;;;;5033774;28;20210;-47
2022/11/05 06:05:23;;;;;;;8.40;4.00;;;6.00;99.90;;;;;;5040600;28;20200;-47
2022/11/05 06:07:55;;;;;;;6.53;3.17;;;6.00;99.90;;;;;;5034231;28;20200;-46
2022/11/05 06:10:22;;;;;;;9.63;3.53;;;6.00;99.90;;;;;;5034893;28;20204;-45
2022/11/05 06:12:49;;;;;;;14.77;4.40;;;6.00;99.90;;;;;;5036924;28;20300;-49
2022/11/05 06:15:16;;;;;;;8.30;3.80;;;6.10;99.90;;;;;;5033866;28;20215;-46
2022/11/05 06:17:44;;;;;;;5.30;2.70;;;6.10;99.90;;;;;;5028994;28;20211;-47
2022/11/05 06:20:12;;;;;;;7.90;2.73;;;6.00;99.90;;;;;;5041157;28;20300;-49
2022/11/05 06:22:39;;;;;;;4.47;2.60;;;6.00;99.90;;;;;;5043642;28;20214;-49
2022/11/05 06:25:08;;;;;;;9.47;3.00;;;6.00;99.90;;;;;;5028480;28;20234;-45
2022/11/05 06:27:35;;;;;;;6.90;3.00;;;6.00;99.90;;;;;;5044021;28;20208;-46
2022/11/05 06:30:02;;;;;;;6.33;3.37;;;6.00;99.90;;;;;;5027335;28;21141;-45
2022/11/05 06:32:30;;;;;;;4.27;2.60;;;6.00;99.90;;;;;;5022434;28;20219;-46
2022/11/05 06:34:58;;;;;;;11.47;3.60;;;6.00;99.90;;;;;;5030670;28;20656;-49
2022/11/05 06:37:26;;;;;;;9.30;3.30;;;6.00;99.90;;;;;;5037808;28;20191;-48
2022/11/05 06:39:55;;;;;;;9.33;2.70;;;6.10;99.90;;;;;;5028831;28;20273;-51
2022/11/05 06:42:24;;;;;;;6.67;3.03;;;6.00;99.90;;;;;;5044099;28;20199;-45
2022/11/05 06:44:51;;;;;;;5.37;2.63;;;6.00;99.90;;;;;;5032039;28;20249;-45
2022/11/05 06:47:18;;;;;;;6.63;2.33;;;6.10;99.90;;;;;;5019757;28;20211;-46
2022/11/05 06:49:45;;;;;;;6.70;2.40;;;6.10;99.90;;;;;;5039963;28;20790;-51
2022/11/05 06:52:15;;;;;;;6.20;2.20;;;6.10;99.90;;;;;;5039373;28;20219;-51
2022/11/05 06:54:42;;;;;;;5.73;2.90;;;6.10;99.90;;;;;;5026274;28;20239;-50
2022/11/05 06:57:10;;;;;;;4.53;2.43;;;6.10;99.90;;;;;;5027964;28;21089;-46
2022/11/05 06:59:37;;;;;;;7.63;3.03;;;6.20;99.90;;;;;;5029558;28;20219;-47
2022/11/05 07:02:04;;;;;;;5.60;2.50;;;6.20;99.90;;;;;;5010874;28;20203;-46
2022/11/05 07:04:31;;;;;;;10.70;2.67;;;6.20;99.90;;;;;;5031710;28;20233;-48
2022/11/05 07:06:59;;;;;;;5.80;2.90;;;6.30;99.90;;;;;;5027736;28;20211;-46
2022/11/05 07:09:27;;;;;;;3.73;2.00;;;6.30;99.90;;;;;;5029564;28;20195;-46
2022/11/05 07:11:54;;;;;;;3.80;2.60;;;6.40;99.90;;;;;;5029068;28;20217;-49
2022/11/05 07:14:21;;;;;;;5.43;2.67;;;6.40;99.90;;;;;;5032729;28;20223;-48
2022/11/05 07:16:48;;;;;;;7.50;2.33;;;6.40;99.90;;;;;;5029524;28;20255;-48
2022/11/05 07:19:15;;;;;;;5.53;2.97;;;6.50;99.90;;;;;;5018057;28;20204;-47
2022/11/05 07:21:42;;;;;;;6.00;2.20;;;6.60;99.90;;;;;;5031096;28;20218;-52
2022/11/05 07:24:09;;;;;;;7.77;3.03;;;6.60;99.90;;;;;;5025662;28;20227;-46
2022/11/05 07:26:37;;;;;;;5.60;3.30;;;6.70;99.90;;;;;;5045019;28;20199;-46
2022/11/05 07:29:04;;;;;;;6.00;2.57;;;6.70;99.90;;;;;;5031076;28;20928;-48
2022/11/05 07:31:31;;;;;;;8.77;2.97;;;6.80;99.90;;;;;;5044716;28;20217;-46
2022/11/05 07:33:58;;;;;;;5.77;2.97;;;6.80;99.90;;;;;;5019707;28;20215;-48
2022/11/05 07:36:25;;;;;;;8.57;3.47;;;6.90;99.90;;;;;;5038803;28;20242;-47
2022/11/05 07:38:52;;;;;;;12.00;4.03;;;6.90;99.90;;;;;;5037210;28;20692;-48
2022/11/05 07:41:19;;;;;;;7.23;3.40;;;7.00;99.90;;;;;;5033607;28;20199;-47
2022/11/05 07:43:47;;;;;;;9.33;2.40;;;7.00;99.90;;;;;;5037377;28;20215;-49
2022/11/05 07:46:14;;;;;;;7.60;2.80;;;7.10;99.90;;;;;;5037535;28;20286;-47
2022/11/05 07:48:41;;;;;;;8.03;3.40;;;7.10;99.90;;;;;;5034867;28;20195;-48
2022/11/05 07:51:08;;;;;;;7.83;2.70;;;7.20;99.90;;;;;;5029352;28;20222;-50
2022/11/05 07:53:35;;;;;;;9.77;3.27;;;7.30;99.90;;;;;;5036964;28;20254;-47
2022/11/05 07:56:01;;;;;;;5.10;3.07;;;7.30;99.90;;;;;;5031583;28;20195;-49
2022/11/05 07:58:29;;;;;;;6.83;2.50;;;7.40;99.90;;;;;;5034875;28;20227;-47
2022/11/05 08:00:58;;;;;;;6.47;3.43;;;7.50;99.90;;;;;;5029389;28;20222;-47
2022/11/05 08:03:25;;;;;;;8.47;2.27;;;7.60;99.90;;;;;;5029035;28;20231;-47
2022/11/05 08:05:52;;;;;;;7.07;2.87;;;7.60;99.90;;;;;;5009928;28;20226;-46
2022/11/05 08:08:19;;;;;;;6.53;2.07;;;7.70;99.90;;;;;;5040826;28;20668;-50
2022/11/05 08:10:47;;;;;;;5.37;2.23;;;7.80;99.90;;;;;;5025371;28;20199;-48
2022/11/05 08:13:14;;;;;;;5.70;2.17;;;7.80;99.90;;;;;;5034090;28;20692;-49
2022/11/05 08:15:42;;;;;;;4.63;2.57;;;7.90;99.90;;;;;;5022205;28;20206;-48
2022/11/05 08:18:12;;;;;;;6.77;2.43;;;8.00;99.90;;;;;;5033880;28;20203;-50
2022/11/05 08:20:40;;;;;;;8.27;2.33;;;8.10;99.90;;;;;;5010710;28;21474;-49
2022/11/05 08:23:07;;;;;;;6.53;2.23;;;8.20;99.90;;;;;;5041954;28;20205;-51
2022/11/05 08:25:34;;;;;;;5.57;2.37;;;8.40;99.90;;;;;;5033181;28;20199;-48
2022/11/05 08:28:03;;;;;;;4.50;1.73;;;8.50;99.90;;;;;;5030756;28;20211;-49
2022/11/05 08:30:31;;;;;;;5.90;2.30;;;8.70;99.90;;;;;;5030789;28;20204;-49
2022/11/05 08:32:59;;;;;;;4.77;1.90;;;8.80;99.90;;;;;;5036836;28;20219;-47
2022/11/05 08:35:29;;;;;;;7.33;1.80;;;8.80;99.90;;;;;;5028057;28;20195;-48
2022/11/05 08:37:57;;;;;;;4.13;1.80;;;8.80;99.90;;;;;;5038633;28;20215;-45
2022/11/05 08:40:25;;;;;;;5.40;1.60;;;8.80;99.90;;;;;;5032475;28;20618;-47
2022/11/05 08:42:52;;;;;;;6.97;1.70;;;8.80;99.90;;;;;;5032588;28;20208;-47
2022/11/05 08:45:19;;;;;;;5.00;1.80;;;8.90;99.90;;;;;;5030850;28;20203;-46
2022/11/05 08:47:45;;;;;;;4.40;1.93;;;8.90;99.90;;;;;;5030112;28;20266;-47
2022/11/05 08:50:13;;;;;;;4.77;1.60;;;9.00;99.90;;;;;;5032700;28;20196;-47
2022/11/05 08:52:41;;;;;;;2.77;1.70;;;9.00;99.90;;;;;;5022182;28;20251;-48
2022/11/05 08:55:09;;;;;;;4.60;1.93;;;9.00;99.90;;;;;;5036667;28;20215;-45
2022/11/05 08:57:35;;;;;;;8.80;1.63;;;9.10;99.90;;;;;;5037886;28;20545;-51
2022/11/05 09:00:02;;;;;;;5.67;2.10;;;9.10;99.90;;;;;;5029735;28;20192;-45
2022/11/05 09:02:30;;;;;;;4.53;1.73;;;9.20;99.90;;;;;;5035205;28;20207;-46
2022/11/05 09:04:57;;;;;;;6.07;1.70;;;9.20;99.90;;;;;;5025096;28;20218;-47
2022/11/05 09:07:23;;;;;;;4.10;1.87;;;9.20;99.90;;;;;;5026467;28;20218;-45
2022/11/05 09:09:51;;;;;;;4.00;1.70;;;9.30;99.90;;;;;;5037973;28;20200;-50
2022/11/05 09:12:18;;;;;;;3.90;2.23;;;9.30;99.90;;;;;;5036155;28;20226;-45
2022/11/05 09:14:45;;;;;;;4.50;1.80;;;9.30;99.90;;;;;;5025409;28;20303;-45
2022/11/05 09:17:16;;;;;;;4.30;1.97;;;9.40;99.90;;;;;;5031482;28;20204;-45
2022/11/05 09:19:43;;;;;;;6.63;2.07;;;9.40;99.90;;;;;;5032538;28;20213;-44
2022/11/05 09:22:11;;;;;;;3.40;2.10;;;9.50;99.90;;;;;;5033540;28;20295;-47
2022/11/05 09:24:38;;;;;;;3.00;1.30;;;9.60;99.90;;;;;;5024014;28;20298;-46
2022/11/05 09:27:08;;;;;;;4.30;1.40;;;9.70;99.90;;;;;;5033594;28;20230;-45
2022/11/05 09:29:36;;;;;;;2.77;1.40;;;9.80;99.90;;;;;;5026128;28;20603;-44
2022/11/05 09:32:02;;;;;;;6.20;1.50;;;10.00;99.90;;;;;;5034797;28;20923;-45
2022/11/05 09:34:30;;;;;;;3.73;1.60;;;10.20;99.90;;;;;;5035918;28;20226;-46
2022/11/05 09:36:57;;;;;;;2.67;1.40;;;10.30;99.90;;;;;;5036463;28;20219;-45
2022/11/05 09:39:24;;;;;;;5.97;1.53;;;10.30;99.90;;;;;;5030386;28;20215;-47
2022/11/05 09:41:52;;;;;;;1.73;1.50;;;10.20;99.90;;;;;;5036522;28;20202;-47
2022/11/05 09:44:23;;;;;;;5.63;1.20;;;10.20;99.90;;;;;;5040386;28;20222;-45
2022/11/05 09:46:54;;;;;;;4.63;1.43;;;10.20;99.90;;;;;;5038461;28;20936;-44
2022/11/05 09:49:27;;;;;;;3.93;1.53;;;10.20;99.90;;;;;;5043370;28;20199;-44
2022/11/05 09:51:56;;;;;;;4.87;1.40;;;10.20;99.90;;;;;;5041476;28;20401;-45
2022/11/05 09:54:24;;;;;;;3.23;1.40;;;10.20;99.90;;;;;;5024136;28;20230;-48
2022/11/05 09:56:52;;;;;;;5.77;1.27;;;10.30;99.90;;;;;;5041733;28;20195;-48
2022/11/05 09:59:25;;;;;;;3.07;1.17;;;10.30;99.90;;;;;;5038338;28;20648;-46
2022/11/05 10:02:01;;;;;;;4.23;1.23;;;10.40;99.90;;;;;;5034992;28;20341;-47
2022/11/05 10:04:30;;;;;;;2.20;1.50;;;10.40;99.90;;;;;;5039157;28;20734;-52
2022/11/05 10:07:00;;;;;;;1.63;1.20;;;10.40;99.90;;;;;;5040667;28;20234;-45
2022/11/05 10:09:31;;;;;;;3.37;1.30;;;10.40;99.90;;;;;;5031830;28;20203;-47
2022/11/05 10:12:02;;;;;;;4.20;1.60;;;10.50;99.90;;;;;;5041639;28;20203;-44
2022/11/05 10:14:33;;;;;;;4.27;1.70;;;10.50;99.90;;;;;;5035475;28;20223;-46
2022/11/05 10:17:11;;;;;;;3.57;1.37;;;10.60;99.90;;;;;;5039325;28;20195;-45
2022/11/05 10:19:43;;;;;;;2.47;1.10;;;10.60;99.90;;;;;;5037434;28;20207;-47
2022/11/05 10:22:15;;;;;;;3.33;2.30;;;10.60;99.90;;;;;;5039753;28;20282;-44
2022/11/05 10:24:45;;;;;;;1.67;1.10;;;10.70;99.90;;;;;;5026017;28;20262;-47
2022/11/05 10:27:16;;;;;;;3.80;1.13;;;10.80;99.90;;;;;;5044231;28;20214;-45
2022/11/05 10:29:45;;;;;;;3.37;1.20;;;10.80;99.90;;;;;;5040340;28;20196;-47
2022/11/05 10:32:17;;;;;;;2.67;1.50;;;10.90;99.90;;;;;;5030590;28;20822;-45
2022/11/05 10:34:45;;;;;;;3.50;1.40;;;10.90;99.90;;;;;;5035768;28;20219;-45
2022/11/05 10:37:12;;;;;;;1.27;1.00;;;10.90;99.90;;;;;;5046382;28;20235;-45
2022/11/05 10:39:39;;;;;;;5.23;1.50;;;11.00;99.90;;;;;;5042042;28;20262;-49
2022/11/05 10:42:26;;;;;;;2.10;1.30;;;11.00;99.90;;;;;;5035529;28;20295;-45
2022/11/05 10:45:06;;;;;;;3.03;1.30;;;11.00;99.90;;;;;;5037196;28;20231;-45
2022/11/05 10:47:44;;;;;;;2.90;1.10;;;11.10;99.90;;;;;;5033329;28;20202;-46
2022/11/05 10:50:15;;;;;;;6.70;1.83;;;11.10;99.90;;;;;;5038062;28;20195;-47
2022/11/05 10:52:52;;;;;;;2.03;1.20;;;11.20;99.90;;;;;;5033929;28;20212;-45
2022/11/05 10:55:23;;;;;;;3.70;1.30;;;11.20;99.90;;;;;;5044901;28;20214;-46
2022/11/05 10:57:51;;;;;;;2.97;1.30;;;11.20;99.90;;;;;;5036887;28;20199;-45
2022/11/05 11:00:27;;;;;;;3.73;1.37;;;11.30;99.90;;;;;;5032115;28;20203;-45
2022/11/05 11:02:56;;;;;;;4.60;1.47;;;11.30;99.90;;;;;;5037708;28;20206;-46
2022/11/05 11:05:27;;;;;;;8.77;1.40;;;11.30;99.90;;;;;;5039924;28;20194;-48
2022/11/05 11:07:59;;;;;;;3.70;1.10;;;11.40;99.90;;;;;;5035997;28;20203;-45
2022/11/05 11:10:27;;;;;;;1.63;0.90;;;11.50;99.90;;;;;;5033778;28;20191;-45
2022/11/05 11:12:56;;;;;;;2.07;1.37;;;11.50;99.90;;;;;;5032099;28;20202;-48
2022/11/05 11:15:27;;;;;;;2.70;1.00;;;11.50;99.90;;;;;;5033575;28;20219;-49
2022/11/05 11:17:54;;;;;;;6.47;1.30;;;11.50;99.90;;;;;;5036802;28;20218;-47
2022/11/05 11:20:24;;;;;;;2.87;1.30;;;11.60;99.90;;;;;;5042270;28;20203;-46
2022/11/05 11:23:03;;;;;;;2.00;0.93;;;11.60;99.90;;;;;;5040165;28;20288;-45
2022/11/05 11:25:37;;;;;;;4.10;1.50;;;11.70;99.90;;;;;;5033285;28;20191;-47
2022/11/05 11:28:07;;;;;;;3.70;1.10;;;11.70;99.90;;;;;;5038199;28;20330;-45
2022/11/05 11:30:35;;;;;;;1.97;1.40;;;11.80;99.90;;;;;;5041018;28;20199;-48
2022/11/05 11:33:08;;;;;;;1.87;1.17;;;11.80;99.90;;;;;;5033748;28;20207;-51
2022/11/05 11:35:37;;;;;;;2.90;0.80;;;11.90;99.90;;;;;;5041772;28;20257;-46
2022/11/05 11:38:06;;;;;;;2.30;0.80;;;11.90;99.90;;;;;;5037661;28;20530;-46
2022/11/05 11:40:35;;;;;;;3.47;0.80;;;11.90;99.90;;;;;;5039419;28;20299;-48
2022/11/05 11:43:05;;;;;;;2.43;0.70;;;11.90;99.90;;;;;;5033417;28;20203;-48
2022/11/05 11:45:36;;;;;;;2.83;1.00;;;11.80;99.90;;;;;;5038914;28;20660;-46
2022/11/05 11:48:06;;;;;;;1.27;0.87;;;11.80;99.90;;;;;;5042938;28;20261;-49
2022/11/05 11:50:38;;;;;;;2.23;1.00;;;11.80;99.90;;;;;;5039748;28;20255;-47
2022/11/05 11:53:33;;;;;;;2.37;0.90;;;11.80;99.90;;;;;;5039503;28;20278;-47
2022/11/05 11:56:12;;;;;;;2.00;1.00;;;11.80;99.90;;;;;;5036338;28;20211;-49
2022/11/05 11:58:42;;;;;;;3.53;1.30;;;11.90;99.90;;;;;;5029598;28;20212;-45
2022/11/05 12:01:32;;;;;;;4.07;0.90;;;12.00;99.90;;;;;;5035524;28;20226;-51
2022/11/05 12:04:08;;;;;;;2.30;1.27;;;12.10;99.90;;;;;;5033982;28;20250;-46
2022/11/05 12:06:44;;;;;;;4.13;1.23;;;12.10;99.90;;;;;;5040649;28;20206;-45
2022/11/05 12:09:20;;;;;;;4.40;1.27;;;12.10;99.90;;;;;;5035914;28;20330;-46
2022/11/05 12:11:55;;;;;;;4.40;0.97;;;12.10;99.90;;;;;;5039384;28;20218;-46
2022/11/05 12:14:33;;;;;;;3.47;1.33;;;12.00;99.90;;;;;;5029166;28;20335;-45
2022/11/05 12:17:21;;;;;;;3.27;1.53;;;12.00;99.90;;;;;;5031996;28;20786;-44
2022/11/05 12:20:16;;;;;;;4.93;1.30;;;12.00;99.90;;;;;;5030825;28;20299;-49
2022/11/05 12:22:59;;;;;;;3.33;1.20;;;12.00;99.90;;;;;;5043182;28;20253;-45
2022/11/05 12:25:40;;;;;;;4.40;1.30;;;12.10;99.90;;;;;;5074537;28;20559;-45
2022/11/05 12:28:39;;;;;;;1.97;1.13;;;12.10;99.90;;;;;;5050580;28;20197;-44
2022/11/05 12:31:16;;;;;;;4.73;1.60;;;12.20;99.90;;;;;;5043995;28;20304;-43
2022/11/05 12:33:55;;;;;;;2.37;1.40;;;12.20;99.90;;;;;;5049535;28;20210;-44
2022/11/05 12:36:32;;;;;;;4.10;1.40;;;12.20;99.90;;;;;;5048614;28;20670;-46
2022/11/05 12:39:25;;;;;;;3.43;1.37;;;12.20;99.90;;;;;;5055732;28;20198;-45
2022/11/05 12:42:00;;;;;;;2.80;1.40;;;12.20;99.90;;;;;;5057067;28;20211;-46
2022/11/05 12:44:41;;;;;;;2.87;1.50;;;12.30;99.90;;;;;;5046585;28;20317;-44
2022/11/05 12:47:21;;;;;;;3.10;1.53;;;12.20;99.90;;;;;;5044320;28;20202;-43
2022/11/05 12:50:03;;;;;;;4.63;1.50;;;12.20;99.90;;;;;;5047325;28;20191;-46
2022/11/05 12:52:56;;;;;;;2.50;1.33;;;12.20;99.90;;;;;;5044051;28;20214;-47
2022/11/05 12:55:25;;;;;;;2.10;1.60;;;12.20;99.90;;;;;;5055589;28;20660;-43
2022/11/05 12:58:07;;;;;;;3.13;1.80;;;12.20;99.90;;;;;;5038575;28;20213;-43
2022/11/05 13:00:35;;;;;;;3.60;1.27;;;12.30;99.90;;;;;;5047163;28;20203;-41
2022/11/05 13:03:18;;;;;;;2.90;1.30;;;12.40;99.90;;;;;;5034582;28;20203;-44
2022/11/05 13:05:50;;;;;;;2.53;1.50;;;12.50;99.90;;;;;;5039742;28;20210;-43
2022/11/05 13:08:22;;;;;;;7.23;3.73;;;12.60;99.90;;;;;;5038794;28;20217;-45
2022/11/05 13:10:52;;;;;;;6.37;3.87;;;12.60;99.90;;;;;;5045155;28;20218;-42
2022/11/05 13:13:27;;;;;;;2.57;1.80;;;12.60;99.90;;;;;;5033073;28;20227;-41
2022/11/05 13:15:57;;;;;;;3.00;1.33;;;12.70;99.90;;;;;;5032699;28;20280;-42
2022/11/05 13:18:32;;;;;;;3.03;1.70;;;12.60;99.90;;;;;;5040849;28;20640;-41
2022/11/05 13:21:04;;;;;;;2.23;1.27;;;12.50;99.90;;;;;;5039249;28;20191;-44
2022/11/05 13:23:35;;;;;;;4.97;1.30;;;12.50;99.90;;;;;;5051457;28;20231;-43
2022/11/05 13:26:07;;;;;;;4.83;1.70;;;12.50;99.90;;;;;;5048827;28;20269;-43
2022/11/05 13:28:45;;;;;;;3.37;1.43;;;12.40;99.90;;;;;;5043653;28;20214;-43
2022/11/05 13:31:18;;;;;;;1.43;1.10;;;12.50;99.90;;;;;;5030374;28;20249;-45
2022/11/05 13:33:47;;;;;;;2.20;1.33;;;12.70;99.90;;;;;;5046075;28;20883;-44
2022/11/05 13:39:11;;;;;;;4.77;1.70;;;13.40;99.90;;;;;;5027269;28;20211;-49
2022/11/05 13:42:00;;;;;;;4.07;1.70;;;13.30;99.90;;;;;;5025983;28;20234;-44
2022/11/05 13:44:51;;;;;;;2.83;1.47;;;13.10;99.90;;;;;;5031322;28;20311;-42
2022/11/05 13:47:33;;;;;;;2.43;1.90;;;13.00;99.90;;;;;;5018250;28;20207;-42
2022/11/05 13:50:24;;;;;;;3.07;2.10;;;13.10;99.90;;;;;;5024624;28;20203;-45
2022/11/05 13:53:14;;;;;;;6.33;3.40;;;13.20;99.90;;;;;;5031349;28;20283;-44
2022/11/05 13:55:59;;;;;;;13.87;9.13;;;13.40;99.90;;;;;;5031263;28;20199;-43